Latest Weather Observations for Sellicks Hill

IDS60801

Issued at 7:31 pm CST Tuesday 31 May 2016 (issued every 30 minutes, with the page automatically refreshed every 10 minutes)

About weather observations | Map of weather stations | Latest weather observations for SA | Other Formats
Station Details ID: 023886 Name: MOUNT TERRIBLE RADAR Lat: -35.33 Lon: 138.50 Height: 385.7 m
Data from the previous 72 hours. | See also: Recent months for locations in South Australia
Date/Time
CST
Temp
°C
App
Temp
°C
Dew
Point
Rel
Hum
%
Delta-T
°C
Wind Press
QNH
hPa
Press
MSL
hPa
Rain
since 9 am
mm
Dir
 
Spd
km/h
Gust
km/h
Spd
kts
Gust
kts
31/07:30pm - - - - - NE 6 11 3 6 - - -
31/07:00pm - - - - - ENE 6 9 3 5 - - -
31/06:30pm - - - - - E 7 9 4 5 - - -
31/06:00pm - - - - - E 6 7 3 4 - - -
31/05:30pm - - - - - SE 6 9 3 5 - - -
31/05:00pm - - - - - CALM 0 6 0 3 - - -
31/04:30pm - - - - - N 2 4 1 2 - - -
31/04:00pm - - - - - NW 6 9 3 5 - - -
31/03:30pm - - - - - NNW 6 9 3 5 - - -
31/03:00pm - - - - - NNW 7 17 4 9 - - -
31/02:30pm - - - - - NNW 7 11 4 6 - - -
31/02:00pm - - - - - NNW 7 13 4 7 - - -
31/01:30pm - - - - - NNW 9 15 5 8 - - -
31/01:00pm - - - - - NNW 11 20 6 11 - - -
31/12:30pm - - - - - NNW 9 15 5 8 - - -
31/12:00pm - - - - - NNW 11 19 6 10 - - -
31/11:30am - - - - - N 9 19 5 10 - - -
31/11:00am - - - - - N 7 19 4 10 - - -
31/10:30am - - - - - NNW 9 17 5 9 - - -
31/10:00am - - - - - N 9 20 5 11 - - -
31/09:30am - - - - - N 7 15 4 8 - - -
31/09:00am - - - - - N 9 15 5 8 - - -
31/08:30am - - - - - N 11 26 6 14 - - -
31/08:00am - - - - - N 9 22 5 12 - - -
31/07:30am - - - - - N 9 20 5 11 - - -
31/07:00am - - - - - N 9 22 5 12 - - -
31/06:30am - - - - - N 11 24 6 13 - - -
31/06:00am - - - - - N 11 30 6 16 - - -
31/05:30am - - - - - N 9 20 5 11 - - -
31/05:00am - - - - - N 11 24 6 13 - - -
31/04:30am - - - - - N 9 22 5 12 - - -
31/04:00am - - - - - N 11 24 6 13 - - -
31/03:30am - - - - - N 9 17 5 9 - - -
31/03:00am - - - - - N 11 30 6 16 - - -
31/02:30am - - - - - N 9 26 5 14 - - -
31/02:00am - - - - - N 11 20 6 11 - - -
31/01:30am - - - - - N 9 17 5 9 - - -
31/01:00am - - - - - N 9 17 5 9 - - -
31/12:30am - - - - - N 9 19 5 10 - - -
31/12:00am - - - - - NNE 7 20 4 11 - - -
 
Date/Time
CST
Temp
°C
App
Temp
°C
Dew
Point
Rel
Hum
%
Delta-T
°C
Wind Press
QNH
hPa
Press
MSL
hPa
Rain
since 9 am
mm
Dir
 
Spd
km/h
Gust
km/h
Spd
kts
Gust
kts
30/11:30pm - - - - - NNE 9 17 5 9 - - -
30/11:00pm - - - - - NNE 9 17 5 9 - - -
30/10:30pm - - - - - NNE 9 20 5 11 - - -
30/10:00pm - - - - - NNE 11 22 6 12 - - -
30/09:30pm - - - - - NNE 11 20 6 11 - - -
30/09:00pm - - - - - NNE 11 19 6 10 - - -
30/08:30pm - - - - - NNE 9 17 5 9 - - -
30/08:00pm - - - - - N 11 22 6 12 - - -
30/07:30pm - - - - - N 9 17 5 9 - - -
30/07:00pm - - - - - NNE 7 20 4 11 - - -
30/06:30pm - - - - - NNE 7 13 4 7 - - -
30/06:00pm - - - - - NNE 6 11 3 6 - - -
30/05:30pm - - - - - N 7 17 4 9 - - -
30/05:00pm - - - - - N 7 11 4 6 - - -
30/04:30pm - - - - - N 11 20 6 11 - - -
30/04:00pm - - - - - NNW 11 22 6 12 - - -
30/03:30pm - - - - - NNW 13 24 7 13 - - -
30/03:00pm - - - - - NNW 15 28 8 15 - - -
30/02:30pm - - - - - NNW 19 30 10 16 - - -
30/02:00pm - - - - - NNW 20 39 11 21 - - -
30/01:30pm - - - - - N 17 32 9 17 - - -
30/01:00pm - - - - - N 15 33 8 18 - - -
30/12:30pm - - - - - N 19 35 10 19 - - -
30/12:00pm - - - - - N 15 39 8 21 - - -
30/11:30am - - - - - N 13 24 7 13 - - -
30/11:00am - - - - - N 15 28 8 15 - - -
30/10:30am - - - - - N 13 30 7 16 - - -
30/10:00am - - - - - N 13 32 7 17 - - -
30/09:30am - - - - - N 11 20 6 11 - - -
30/09:00am - - - - - N 9 20 5 11 - - -
30/08:30am - - - - - NNE 11 20 6 11 - - -
30/08:00am - - - - - N 11 32 6 17 - - -
30/07:30am - - - - - N 11 24 6 13 - - -
30/07:00am - - - - - N 9 19 5 10 - - -
30/06:30am - - - - - N 9 17 5 9 - - -
30/06:00am - - - - - NNE 7 17 4 9 - - -
30/05:30am - - - - - N 7 17 4 9 - - -
30/05:00am - - - - - NNE 9 20 5 11 - - -
30/04:30am - - - - - N 9 20 5 11 - - -
30/04:00am - - - - - N 9 20 5 11 - - -
30/03:30am - - - - - NNE 9 17 5 9 - - -
30/03:00am - - - - - N 9 22 5 12 - - -
30/02:30am - - - - - N 7 17 4 9 - - -
30/02:00am - - - - - N 9 22 5 12 - - -
30/01:30am - - - - - N 11 24 6 13 - - -
30/01:00am - - - - - N 13 24 7 13 - - -
30/12:30am - - - - - NNE 13 24 7 13 - - -
30/12:00am - - - - - N 11 24 6 13 - - -
 
Date/Time
CST
Temp
°C
App
Temp
°C
Dew
Point
Rel
Hum
%
Delta-T
°C
Wind Press
QNH
hPa
Press
MSL
hPa
Rain
since 9 am
mm
Dir
 
Spd
km/h
Gust
km/h
Spd
kts
Gust
kts
29/11:30pm - - - - - NNE 11 24 6 13 - - -
29/11:00pm - - - - - NNE 11 26 6 14 - - -
29/10:30pm - - - - - NNE 11 28 6 15 - - -
29/10:00pm - - - - - NNE 11 20 6 11 - - -
29/09:30pm - - - - - NNE 9 17 5 9 - - -
29/09:00pm - - - - - NNE 9 17 5 9 - - -
29/08:30pm - - - - - NNE 7 15 4 8 - - -
29/08:00pm - - - - - NNE 7 13 4 7 - - -
29/07:30pm - - - - - NNE 7 15 4 8 - - -
29/07:00pm - - - - - NNE 7 17 4 9 - - -
29/06:30pm - - - - - NNE 7 13 4 7 - - -
29/06:00pm - - - - - NNE 6 11 3 6 - - -
29/05:30pm - - - - - NNE 6 9 3 5 - - -
29/05:00pm - - - - - NNE 6 11 3 6 - - -
29/04:30pm - - - - - N 6 9 3 5 - - -
29/04:00pm - - - - - NNW 6 13 3 7 - - -
29/03:30pm - - - - - N 6 13 3 7 - - -
29/03:00pm - - - - - N 7 17 4 9 - - -
29/02:30pm - - - - - N 9 17 5 9 - - -
29/02:00pm - - - - - NNW 9 19 5 10 - - -
29/01:30pm - - - - - NNW 9 19 5 10 - - -
29/01:00pm - - - - - N 7 15 4 8 - - -
29/12:30pm - - - - - NNW 9 22 5 12 - - -
29/12:00pm - - - - - N 6 13 3 7 - - -
29/11:30am - - - - - N 6 11 3 6 - - -
29/11:00am - - - - - N 6 9 3 5 - - -
29/10:30am - - - - - N 7 13 4 7 - - -
29/10:00am - - - - - N 6 11 3 6 - - -
29/09:30am - - - - - NNE 7 13 4 7 - - -
29/09:00am - - - - - NNE 7 17 4 9 - - -
29/08:30am - - - - - NE 7 11 4 6 - - -
29/08:00am - - - - - NE 6 7 3 4 - - -
29/07:30am - - - - - NE 6 9 3 5 - - -
29/07:00am - - - - - NE 6 11 3 6 - - -
29/06:30am - - - - - NE 7 13 4 7 - - -
29/06:00am - - - - - NE 7 11 4 6 - - -
29/05:30am - - - - - NE 7 13 4 7 - - -
29/05:00am - - - - - NE 9 11 5 6 - - -
29/04:30am - - - - - NE 7 11 4 6 - - -
29/04:00am - - - - - ENE 7 11 4 6 - - -
29/03:30am - - - - - ENE 9 15 5 8 - - -
29/03:00am - - - - - E 11 19 6 10 - - -
29/02:30am - - - - - E 13 22 7 12 - - -
29/02:00am - - - - - E 13 19 7 10 - - -
29/01:30am - - - - - E 15 24 8 13 - - -
29/01:00am - - - - - E 13 22 7 12 - - -
29/12:30am - - - - - E 11 19 6 10 - - -
29/12:00am - - - - - E 11 19 6 10 - - -
 
Date/Time
CST
Temp
°C
App
Temp
°C
Dew
Point
Rel
Hum
%
Delta-T
°C
Wind Press
QNH
hPa
Press
MSL
hPa
Rain
since 9 am
mm
Dir
 
Spd
km/h
Gust
km/h
Spd
kts
Gust
kts
28/11:30pm - - - - - E 11 17 6 9 - - -
28/11:00pm - - - - - E 11 15 6 8 - - -
28/10:30pm - - - - - E 15 19 8 10 - - -
28/10:00pm - - - - - ESE 13 17 7 9 - - -
28/09:30pm - - - - - ESE 15 19 8 10 - - -
28/09:00pm - - - - - ESE 13 19 7 10 - - -
28/08:30pm - - - - - ESE 11 15 6 8 - - -
28/08:00pm - - - - - ESE 11 15 6 8 - - -

Other Formats:

Comma delimited format used in spreadsheet applications
http://www.bom.gov.au/fwo/IDS60801/IDS60801.95679.axf

JavaScript Object Notation format (JSON) in row-major order
http://www.bom.gov.au/fwo/IDS60801/IDS60801.95679.json